Time;durP1;ratioP1;P1;durP2;ratioP2;P2;SDS_P1;SDS_P2;PMS_P1;PMS_P2;Temp;Humidity;BMP_temperature;BMP_pressure;BME280_temperature;BME280_humidity;BME280_pressure;Samples;Min_cycle;Max_cycle;Signal;HPM_P1;HPM_P2
2020/12/14 00:01:53;;;;;;;43.52;26.48;;;;;;;19.31;48.60;100759.47;2300748;76;50386;-76
2020/12/14 00:04:56;;;;;;;48.90;28.42;;;;;;;19.34;48.61;100759.13;2322246;76;52141;-76
2020/12/14 00:07:58;;;;;;;45.90;27.52;;;;;;;19.30;48.58;100757.82;2322017;76;50673;-76
2020/12/14 00:11:00;;;;;;;44.15;26.65;;;;;;;19.29;48.63;100757.51;2322022;76;50358;-76
2020/12/14 00:14:03;;;;;;;44.48;26.55;;;;;;;19.29;48.56;100756.17;2322208;75;50429;-77
2020/12/14 00:17:05;;;;;;;48.63;26.82;;;;;;;19.28;48.57;100750.45;2322089;76;51531;-77
2020/12/14 00:20:07;;;;;;;44.05;26.42;;;;;;;19.24;48.64;100750.52;2321991;76;50837;-76
2020/12/14 00:23:10;;;;;;;41.75;25.95;;;;;;;19.24;48.62;100749.19;2322298;76;50641;-76
2020/12/14 00:26:12;;;;;;;49.83;27.50;;;;;;;19.26;48.57;100756.52;2322228;76;52479;-76
2020/12/14 00:29:14;;;;;;;43.17;27.02;;;;;;;19.23;48.66;100758.74;2322152;76;50425;-76
2020/12/14 00:32:16;;;;;;;44.23;25.82;;;;;;;19.23;48.56;100756.89;2322152;76;50423;-76
2020/12/14 00:35:18;;;;;;;48.87;27.22;;;;;;;19.18;48.50;100752.58;2322067;76;51975;-76
2020/12/14 00:38:21;;;;;;;44.13;26.57;;;;;;;19.21;48.58;100759.43;2322056;76;51541;-76
2020/12/14 00:41:23;;;;;;;43.60;25.90;;;;;;;19.19;48.53;100764.14;2322034;76;51497;-77
2020/12/14 00:44:25;;;;;;;44.93;25.55;;;;;;;19.19;48.58;100756.09;2322075;76;51501;-77
2020/12/14 00:47:27;;;;;;;42.73;26.10;;;;;;;19.16;48.60;100755.95;2322043;76;51502;-77
2020/12/14 00:50:30;;;;;;;43.98;25.57;;;;;;;19.15;48.54;100753.78;2322049;75;50311;-76
2020/12/14 00:53:32;;;;;;;48.15;26.23;;;;;;;19.15;48.48;100751.10;2322304;76;50681;-77
2020/12/14 00:56:35;;;;;;;41.50;25.08;;;;;;;19.13;48.51;100747.77;2322186;76;51537;-77
2020/12/14 00:59:37;;;;;;;41.75;25.30;;;;;;;19.13;48.51;100751.79;2322158;76;50483;-77
2020/12/14 01:02:40;;;;;;;41.15;25.02;;;;;;;19.12;48.51;100747.97;2322155;76;51576;-78
2020/12/14 01:05:42;;;;;;;40.10;25.60;;;;;;;19.12;48.43;100754.67;2322073;76;51648;-78
2020/12/14 01:08:44;;;;;;;43.30;25.75;;;;;;;19.10;48.49;100763.41;2321902;76;51467;-77
2020/12/14 01:11:46;;;;;;;40.00;24.32;;;;;;;19.11;48.45;100766.40;2322139;76;50370;-77
2020/12/14 01:14:48;;;;;;;41.30;25.00;;;;;;;19.09;48.51;100760.41;2322228;76;50716;-77
2020/12/14 01:17:50;;;;;;;41.13;25.10;;;;;;;19.06;48.41;100764.30;2321879;75;51539;-77
2020/12/14 01:20:53;;;;;;;39.73;24.65;;;;;;;19.05;48.40;100778.70;2322385;76;51453;-77
2020/12/14 01:23:55;;;;;;;42.23;24.55;;;;;;;19.05;48.51;100784.58;2322407;76;50335;-78
2020/12/14 01:26:57;;;;;;;39.78;24.65;;;;;;;19.05;48.52;100776.53;2322599;75;50387;-77
2020/12/14 01:29:59;;;;;;;39.70;24.37;;;;;;;19.06;48.50;100773.68;2322232;75;50702;-78
2020/12/14 01:33:02;;;;;;;42.53;24.43;;;;;;;19.05;48.46;100776.53;2290147;76;50718;-77
2020/12/14 01:36:04;;;;;;;39.65;24.32;;;;;;;19.02;48.46;100779.07;2322571;76;52137;-78
2020/12/14 01:39:06;;;;;;;39.25;23.62;;;;;;;19.01;48.51;100781.92;2322809;75;51882;-77
2020/12/14 01:42:08;;;;;;;39.00;24.45;;;;;;;19.00;48.46;100782.95;2323776;76;51608;-77
2020/12/14 01:45:10;;;;;;;37.83;24.12;;;;;;;19.02;48.45;100772.88;2300110;76;50311;-76
2020/12/14 01:48:13;;;;;;;38.60;23.62;;;;;;;19.00;48.44;100774.91;2287004;76;50327;-75
2020/12/14 01:51:15;;;;;;;39.10;23.15;;;;;;;18.98;48.48;100779.61;2321893;76;50264;-75
2020/12/14 01:54:19;;;;;;;40.85;23.60;;;;;;;18.98;48.47;100783.63;2321995;76;51546;-78
2020/12/14 01:57:21;;;;;;;39.40;23.62;;;;;;;18.97;48.47;100777.45;2322058;76;50420;-76
2020/12/14 02:00:24;;;;;;;35.20;23.00;;;;;;;18.98;48.44;100778.27;2321806;76;50357;-75
2020/12/14 02:03:26;;;;;;;39.58;23.20;;;;;;;18.94;48.48;100779.16;2321824;76;50343;-75
2020/12/14 02:06:28;;;;;;;38.98;23.30;;;;;;;18.93;48.51;100774.30;2321915;76;51513;-76
2020/12/14 02:09:30;;;;;;;37.45;23.32;;;;;;;18.93;48.46;100760.90;2321838;76;51456;-76
2020/12/14 02:12:32;;;;;;;33.28;22.13;;;;;;;18.93;48.51;100766.27;2321986;75;51437;-76
2020/12/14 02:15:35;;;;;;;37.25;22.70;;;;;;;18.92;48.49;100775.81;2322031;76;50470;-77
2020/12/14 02:18:37;;;;;;;36.45;23.22;;;;;;;18.93;48.49;100764.06;2321808;76;50692;-76
2020/12/14 02:21:39;;;;;;;33.58;22.13;;;;;;;18.91;48.53;100758.91;2321705;75;52410;-76
2020/12/14 02:24:45;;;;;;;33.13;21.90;;;;;;;18.93;48.50;100761.38;2321876;75;51344;-75
2020/12/14 02:27:46;;;;;;;38.80;23.03;;;;;;;18.77;48.67;100739.59;2322202;76;22764;-76
2020/12/14 02:30:48;;;;;;;39.15;22.07;;;;;;;18.77;48.67;100739.59;2313138;75;50328;-76
2020/12/14 02:33:50;;;;;;;35.98;22.40;;;;;;;18.87;48.56;100746.86;2297420;76;50079;-77
2020/12/14 02:36:53;;;;;;;37.50;22.67;;;;;;;18.86;48.50;100738.51;2322087;75;50762;-76
2020/12/14 02:39:55;;;;;;;35.52;21.97;;;;;;;18.87;48.51;100730.78;2321730;75;51545;-77
2020/12/14 02:42:57;;;;;;;33.42;21.57;;;;;;;18.83;48.63;100720.11;2322179;75;51460;-76
2020/12/14 02:45:59;;;;;;;35.52;22.40;;;;;;;18.83;48.59;100721.45;2321981;76;50754;-76
2020/12/14 02:49:01;;;;;;;37.13;21.52;;;;;;;18.84;48.61;100727.12;2321798;75;50701;-76
2020/12/14 02:52:05;;;;;;;33.23;21.10;;;;;;;18.83;48.57;100738.87;2322150;75;51533;-76
2020/12/14 02:55:07;;;;;;;34.48;21.27;;;;;;;18.85;48.50;100744.04;2322111;76;51587;-77
2020/12/14 02:58:09;;;;;;;32.30;21.45;;;;;;;18.83;48.53;100738.87;2322143;76;50433;-78
2020/12/14 03:01:11;;;;;;;33.18;21.40;;;;;;;18.83;48.51;100736.68;2322202;76;50369;-78
2020/12/14 03:04:14;;;;;;;30.70;20.20;;;;;;;18.81;48.56;100740.91;2322572;76;50326;-78
2020/12/14 03:07:16;;;;;;;33.95;21.52;;;;;;;18.80;48.59;100744.58;2322791;75;50395;-78
2020/12/14 03:10:18;;;;;;;32.98;20.02;;;;;;;18.81;48.51;100751.63;2322496;76;50088;-76
2020/12/14 03:13:20;;;;;;;30.65;20.23;;;;;;;18.81;48.57;100748.13;2322603;75;50311;-76
2020/12/14 03:16:23;;;;;;;33.40;19.75;;;;;;;18.79;48.56;100736.22;2322938;75;50537;-76
2020/12/14 03:19:25;;;;;;;30.75;19.85;;;;;;;18.77;48.64;100736.91;2322539;75;50444;-77
2020/12/14 03:22:27;;;;;;;34.08;20.92;;;;;;;18.77;48.66;100738.77;2322974;76;50402;-76
2020/12/14 03:25:29;;;;;;;33.08;20.15;;;;;;;18.75;48.69;100748.80;2322798;75;50694;-77
2020/12/14 03:28:32;;;;;;;30.23;20.68;;;;;;;18.74;48.71;100756.02;2322652;76;51548;-76
2020/12/14 03:31:34;;;;;;;30.40;19.48;;;;;;;18.74;48.66;100746.63;2322682;76;51536;-77
2020/12/14 03:34:36;;;;;;;31.27;19.12;;;;;;;18.74;48.72;100743.13;2322746;75;51572;-77
2020/12/14 03:37:38;;;;;;;30.60;18.77;;;;;;;18.72;48.72;100741.95;2322719;76;50363;-76
2020/12/14 03:40:41;;;;;;;27.52;18.73;;;;;;;18.70;48.74;100742.15;2322446;75;50701;-76
2020/12/14 03:43:43;;;;;;;30.17;18.80;;;;;;;18.69;48.80;100731.59;2322473;76;52373;-76
2020/12/14 03:46:45;;;;;;;29.10;18.80;;;;;;;18.68;48.77;100733.97;2322126;75;50368;-75
2020/12/14 03:49:47;;;;;;;27.75;18.02;;;;;;;18.67;48.79;100741.14;2322064;75;50628;-76
2020/12/14 03:52:50;;;;;;;28.95;18.73;;;;;;;18.67;48.78;100734.45;2322198;75;51541;-76
2020/12/14 03:55:52;;;;;;;29.23;18.12;;;;;;;18.66;48.78;100737.33;2322269;76;51551;-78
2020/12/14 03:58:54;;;;;;;28.02;17.80;;;;;;;18.66;48.80;100727.43;2322087;76;50438;-76
2020/12/14 04:01:56;;;;;;;29.42;18.57;;;;;;;18.65;48.83;100732.96;2298851;75;52448;-77
2020/12/14 04:04:59;;;;;;;26.00;17.32;;;;;;;18.62;48.89;100730.14;2301834;76;50337;-77
2020/12/14 04:08:01;;;;;;;29.00;18.12;;;;;;;18.65;48.85;100726.27;2322162;75;50652;-76
2020/12/14 04:11:03;;;;;;;27.75;17.82;;;;;;;18.63;48.79;100727.80;2322029;76;51411;-77
2020/12/14 04:14:05;;;;;;;27.87;17.87;;;;;;;18.61;48.86;100729.00;2322107;76;50539;-77
2020/12/14 04:17:08;;;;;;;26.30;17.60;;;;;;;18.61;48.80;100721.78;2322334;75;51568;-77
2020/12/14 04:20:10;;;;;;;24.85;16.42;;;;;;;18.61;48.83;100726.31;2322239;75;51550;-77
2020/12/14 04:23:12;;;;;;;27.10;17.17;;;;;;;18.59;48.89;100724.31;2324025;75;50248;-77
2020/12/14 04:26:15;;;;;;;27.37;17.52;;;;;;;18.60;48.84;100728.17;2323987;76;51727;-77
2020/12/14 04:29:17;;;;;;;27.77;17.45;;;;;;;18.60;48.81;100734.87;2322120;75;50758;-76
2020/12/14 04:32:19;;;;;;;26.30;17.45;;;;;;;18.56;48.87;100728.70;2302798;75;50705;-77
2020/12/14 04:35:21;;;;;;;24.57;16.73;;;;;;;18.57;48.88;100725.00;2322270;76;52322;-77
2020/12/14 04:38:24;;;;;;;26.05;16.42;;;;;;;18.56;48.88;100730.05;2322132;76;50386;-77
2020/12/14 04:41:26;;;;;;;22.30;15.83;;;;;;;18.55;48.86;100729.22;2322056;75;52112;-77
2020/12/14 04:44:28;;;;;;;24.98;16.65;;;;;;;18.53;48.91;100727.73;2322254;75;51416;-77
2020/12/14 04:47:30;;;;;;;23.10;15.75;;;;;;;18.56;48.81;100740.77;2322030;76;50344;-76
2020/12/14 04:50:32;;;;;;;26.15;16.57;;;;;;;18.56;48.80;100746.13;2322195;75;50223;-77
2020/12/14 04:53:35;;;;;;;23.05;16.00;;;;;;;18.52;48.91;100740.78;2322037;76;51663;-76
2020/12/14 04:56:41;;;;;;;25.35;16.25;;;;;;;18.49;48.91;100741.47;2322076;76;50254;-76
2020/12/14 04:59:44;;;;;;;23.52;15.43;;;;;;;18.52;48.88;100745.63;2321691;75;50241;-77
2020/12/14 05:02:47;;;;;;;22.37;15.78;;;;;;;18.50;48.88;100731.09;2287559;76;51411;-77
2020/12/14 05:05:56;;;;;;;21.35;15.13;;;;;;;18.48;48.92;100738.47;2296350;76;50435;-77
2020/12/14 05:08:59;;;;;;;22.25;14.83;;;;;;;18.48;48.89;100738.47;2322233;76;50442;-78
2020/12/14 05:12:01;;;;;;;24.00;15.68;;;;;;;18.47;48.86;100736.82;2300257;75;50789;-77
2020/12/14 05:15:03;;;;;;;23.62;15.28;;;;;;;18.47;48.96;100742.17;2322054;75;50173;-78
2020/12/14 05:18:13;;;;;;;22.52;15.83;;;;;;;18.48;48.78;100734.97;2322006;76;50711;-75
2020/12/14 05:21:15;;;;;;;23.02;14.93;;;;;;;18.47;48.75;100742.17;2322100;76;51529;-76
2020/12/14 05:24:31;;;;;;;21.25;14.38;;;;;;;18.50;48.66;100746.34;2322319;76;52316;-77
2020/12/14 05:27:34;;;;;;;23.90;14.47;;;;;;;18.50;48.67;100751.19;2322630;76;50449;-77
2020/12/14 05:30:38;;;;;;;21.57;15.05;;;;;;;18.52;48.62;100749.66;2322332;76;50671;-77
2020/12/14 05:33:40;;;;;;;21.45;13.65;;;;;;;18.55;48.51;100751.14;2283550;76;51568;-76
2020/12/14 05:36:43;;;;;;;19.25;13.22;;;;;;;18.57;48.46;100757.16;2296372;76;51524;-76
2020/12/14 05:39:46;;;;;;;18.30;13.15;;;;;;;18.58;48.47;100748.95;2322421;75;50308;-77
2020/12/14 05:42:48;;;;;;;18.07;12.20;;;;;;;18.62;48.42;100745.39;2322339;76;50417;-76
2020/12/14 05:45:50;;;;;;;18.80;12.78;;;;;;;18.63;48.39;100749.75;2322178;75;50094;-77
2020/12/14 05:48:53;;;;;;;17.80;12.70;;;;;;;18.66;48.33;100746.19;2283010;78;51486;-76
2020/12/14 05:52:02;;;;;;;18.32;12.53;;;;;;;18.66;48.36;100752.89;2299219;75;51538;-77
2020/12/14 05:55:04;;;;;;;16.67;12.53;;;;;;;18.74;48.19;100735.91;2322013;75;50396;-76
2020/12/14 05:58:07;;;;;;;15.80;11.90;;;;;;;18.88;47.84;100737.83;2321892;75;51562;-76
2020/12/14 06:01:09;;;;;;;15.10;11.00;;;;;;;18.95;47.86;100743.78;2321931;76;51501;-75
2020/12/14 06:04:11;;;;;;;13.50;10.35;;;;;;;19.07;47.54;100735.10;2321996;76;51508;-76
2020/12/14 06:07:13;;;;;;;15.68;10.88;;;;;;;19.06;47.70;100736.62;2322100;75;50422;-76
2020/12/14 06:10:16;;;;;;;14.75;9.88;;;;;;;19.05;47.70;100730.94;2322032;76;50407;-76
2020/12/14 06:13:23;;;;;;;13.62;10.35;;;;;;;19.11;47.61;100731.53;2322173;75;50397;-76
2020/12/14 06:16:26;;;;;;;17.07;11.12;;;;;;;19.15;47.52;100734.19;2320531;75;50714;-76
2020/12/14 06:19:28;;;;;;;14.58;10.58;;;;;;;19.21;47.38;100733.44;2322177;76;51592;-76
2020/12/14 06:22:31;;;;;;;17.30;11.30;;;;;;;19.24;47.33;100738.94;2322520;76;51616;-76
2020/12/14 06:25:33;;;;;;;15.83;10.53;;;;;;;19.27;47.28;100734.05;2322123;76;51656;-77
2020/12/14 06:28:35;;;;;;;15.98;10.43;;;;;;;19.31;47.33;100727.80;2321964;76;51537;-75
2020/12/14 06:31:39;;;;;;;15.08;10.32;;;;;;;19.34;47.27;100719.37;2322009;75;51505;-76
2020/12/14 06:34:41;;;;;;;12.70;9.25;;;;;;;19.34;47.34;100718.88;2322177;76;50439;-78
2020/12/14 06:37:47;;;;;;;18.27;11.53;;;;;;;19.38;47.29;100723.88;2322253;75;50349;-78
2020/12/14 06:40:59;;;;;;;16.02;10.25;;;;;;;19.40;47.60;100731.23;2322094;75;50456;-77
2020/12/14 06:44:09;;;;;;;13.78;9.53;;;;;;;19.43;47.65;100732.19;2322364;75;51617;-77
2020/12/14 06:47:17;;;;;;;21.90;9.33;;;;;;;19.44;47.73;100737.88;2289436;76;51511;-77
2020/12/14 06:50:24;;;;;;;12.37;8.93;;;;;;;19.47;47.67;100729.44;2322662;75;50734;-77
2020/12/14 06:53:42;;;;;;;14.50;9.08;;;;;;;19.47;47.69;100732.13;2323109;76;50420;-77
2020/12/14 06:56:45;;;;;;;13.70;9.23;;;;;;;19.53;47.59;100718.80;2323591;75;51501;-78
2020/12/14 06:59:51;;;;;;;15.55;9.05;;;;;;;19.56;47.59;100725.65;2323459;76;51559;-76
2020/12/14 07:02:53;;;;;;;14.30;9.50;;;;;;;19.61;47.79;100719.20;2323682;75;51834;-77
2020/12/14 07:05:59;;;;;;;15.58;9.48;;;;;;;19.62;48.03;100727.56;2326114;76;50443;-77
2020/12/14 07:09:19;;;;;;;16.25;9.75;;;;;;;19.65;48.28;100733.93;2327351;75;51485;-76
2020/12/14 07:12:24;;;;;;;19.30;9.25;;;;;;;19.66;48.47;100738.27;2284447;77;50757;-77
2020/12/14 07:15:28;;;;;;;19.15;9.93;;;;;;;19.67;48.55;100742.63;2354182;75;50854;-77
2020/12/14 07:18:30;;;;;;;17.15;9.28;;;;;;;19.71;48.54;100739.08;2328979;75;50732;-77
2020/12/14 07:21:33;;;;;;;17.65;8.98;;;;;;;19.77;48.31;100739.14;2324610;76;50795;-78
2020/12/14 07:24:35;;;;;;;15.50;9.80;;;;;;;19.79;48.22;100746.50;2324716;76;50884;-77
2020/12/14 07:27:37;;;;;;;19.55;8.53;;;;;;;19.84;48.02;100741.91;2327335;76;50213;-77
2020/12/14 07:30:39;;;;;;;11.95;8.28;;;;;;;19.86;47.90;100740.37;2325493;76;50856;-76
2020/12/14 07:33:43;;;;;;;14.00;8.50;;;;;;;19.86;47.82;100743.91;2318944;76;51529;-77
2020/12/14 07:36:45;;;;;;;14.93;9.13;;;;;;;19.90;47.64;100749.20;2323152;75;50360;-76
2020/12/14 07:39:48;;;;;;;20.70;9.43;;;;;;;19.93;47.50;100743.97;2327263;75;50715;-77
2020/12/14 07:42:51;;;;;;;12.93;8.28;;;;;;;19.95;47.39;100754.02;2326901;76;52518;-76
2020/12/14 07:45:53;;;;;;;13.75;8.28;;;;;;;19.96;47.34;100747.12;2330436;76;50366;-77
2020/12/14 07:49:00;;;;;;;13.93;8.78;;;;;;;20.00;47.10;100751.59;2341427;74;52529;-76
2020/12/14 07:52:03;;;;;;;14.70;8.40;;;;;;;20.00;47.06;100763.68;2341259;74;51508;-76
2020/12/14 07:55:06;;;;;;;11.63;8.03;;;;;;;20.03;46.98;100757.09;2341639;74;51534;-77
2020/12/14 07:58:08;;;;;;;14.35;8.05;;;;;;;20.05;46.86;100753.20;2341673;76;50499;-76
2020/12/14 08:01:15;;;;;;;12.28;7.75;;;;;;;20.10;46.67;100753.45;2342973;74;50423;-78
2020/12/14 08:04:21;;;;;;;17.17;7.97;;;;;;;20.09;46.66;100759.87;2343487;75;50408;-76
2020/12/14 08:07:24;;;;;;;11.68;7.70;;;;;;;20.13;46.56;100749.56;2367611;73;51696;-77
2020/12/14 08:10:37;;;;;;;13.28;8.00;;;;;;;20.16;46.41;100747.83;2375409;73;51621;-78
2020/12/14 08:13:39;;;;;;;12.03;7.83;;;;;;;20.15;46.38;100751.03;2346940;73;22535;-79
2020/12/14 08:16:48;;;;;;;15.85;8.18;;;;;;;20.20;46.28;100760.70;2329553;76;50694;-77
2020/12/14 08:19:50;;;;;;;13.90;7.67;;;;;;;20.19;46.29;100752.33;2340661;76;50050;-78
2020/12/14 08:22:53;;;;;;;13.40;7.70;;;;;;;20.22;46.34;100751.94;2342341;76;50722;-77
2020/12/14 08:25:55;;;;;;;13.20;8.03;;;;;;;20.21;46.54;100747.56;2343710;74;50529;-78
2020/12/14 08:28:58;;;;;;;9.60;6.72;;;;;;;20.22;46.63;100755.97;2342694;75;50722;-78
2020/12/14 08:32:01;;;;;;;12.05;7.83;;;;;;;20.25;46.63;100744.52;2343280;75;50724;-77
2020/12/14 08:35:21;;;;;;;12.13;7.12;;;;;;;20.25;46.68;100741.32;2342392;76;50094;-78
2020/12/14 08:38:27;;;;;;;13.15;6.87;;;;;;;20.27;46.67;100741.97;2340775;76;50792;-78
2020/12/14 08:41:29;;;;;;;14.23;7.20;;;;;;;20.30;46.71;100744.78;2342421;76;50701;-79
2020/12/14 08:44:31;;;;;;;13.78;7.22;;;;;;;20.31;46.69;100741.06;2342369;76;51530;-77
2020/12/14 08:47:36;;;;;;;16.23;7.37;;;;;;;20.31;46.81;100735.69;2342254;76;50388;-75
2020/12/14 08:50:38;;;;;;;12.85;7.25;;;;;;;20.35;47.18;100735.63;2342442;75;50667;-77
2020/12/14 08:53:42;;;;;;;13.83;7.20;;;;;;;20.35;47.57;100725.70;2342641;76;50834;-77
2020/12/14 08:56:45;;;;;;;10.98;6.92;;;;;;;20.38;47.35;100737.41;2342774;75;50392;-77
2020/12/14 08:59:47;;;;;;;14.28;7.15;;;;;;;20.42;47.21;100737.84;2344767;75;50365;-79
2020/12/14 09:02:49;;;;;;;11.60;6.90;;;;;;;20.43;47.14;100738.19;2310018;75;50244;-79
2020/12/14 09:05:51;;;;;;;11.30;6.90;;;;;;;20.44;47.05;100730.42;2284820;75;50632;-77
2020/12/14 09:09:14;;;;;;;11.22;6.75;;;;;;;20.44;47.28;100738.48;2344626;75;50726;-77
2020/12/14 09:12:16;;;;;;;9.38;6.58;;;;;;;20.47;47.14;100734.06;2344947;75;50259;-77
2020/12/14 09:15:18;;;;;;;11.03;7.00;;;;;;;20.51;47.00;100735.35;2344864;74;50361;-77
2020/12/14 09:18:20;;;;;;;11.83;7.05;;;;;;;20.54;46.88;100731.45;2344703;75;51614;-77
2020/12/14 09:21:22;;;;;;;12.00;6.55;;;;;;;20.55;46.79;100725.92;2344809;75;50525;-77
2020/12/14 09:24:32;;;;;;;9.58;6.65;;;;;;;20.55;46.75;100733.98;2344905;75;52222;-76
2020/12/14 09:27:34;;;;;;;10.65;7.08;;;;;;;20.59;46.64;100737.93;2344957;75;51559;-78
2020/12/14 09:30:36;;;;;;;9.48;6.70;;;;;;;20.59;46.63;100730.38;2344942;74;50693;-78
2020/12/14 09:33:38;;;;;;;12.35;6.60;;;;;;;20.60;46.55;100728.86;2345221;75;51413;-77
2020/12/14 09:36:40;;;;;;;11.55;6.42;;;;;;;20.61;46.54;100722.44;2345311;75;50262;-77
2020/12/14 09:39:43;;;;;;;10.78;7.15;;;;;;;20.63;46.43;100724.43;2345117;75;50381;-77
2020/12/14 09:42:46;;;;;;;12.30;6.75;;;;;;;20.64;46.40;100718.53;2345355;75;51607;-77
2020/12/14 09:45:52;;;;;;;9.35;6.40;;;;;;;20.65;46.37;100727.77;2345141;75;51437;-78
2020/12/14 09:48:55;;;;;;;10.58;6.67;;;;;;;20.64;46.37;100724.73;2345084;74;50267;-77
2020/12/14 09:51:57;;;;;;;10.65;6.22;;;;;;;20.65;46.35;100730.94;2345603;75;51648;-77
2020/12/14 09:54:59;;;;;;;11.78;6.87;;;;;;;20.70;46.23;100731.70;2345943;75;51557;-77
2020/12/14 09:58:01;;;;;;;9.90;6.30;;;;;;;20.70;46.23;100726.33;2345963;75;50300;-77
2020/12/14 10:01:04;;;;;;;13.00;6.45;;;;;;;20.71;46.16;100728.83;2345836;75;50445;-76
2020/12/14 10:04:06;;;;;;;7.90;6.03;;;;;;;20.73;46.08;100724.59;2346241;75;50795;-77
2020/12/14 10:07:08;;;;;;;10.48;6.42;;;;;;;20.74;46.09;100712.82;2346153;75;51568;-77
2020/12/14 10:10:10;;;;;;;9.95;6.30;;;;;;;20.75;46.01;100707.23;2345620;75;51591;-77
2020/12/14 10:13:13;;;;;;;8.45;5.80;;;;;;;20.75;46.02;100717.16;2345491;75;51477;-77
2020/12/14 10:16:15;;;;;;;11.63;6.05;;;;;;;20.76;45.97;100716.98;2345580;75;51633;-78
2020/12/14 10:19:18;;;;;;;7.40;5.67;;;;;;;20.77;45.93;100702.49;2344758;75;51355;-79
2020/12/14 10:22:20;;;;;;;9.85;5.92;;;;;;;20.79;45.91;100714.41;2344715;75;51484;-78
2020/12/14 10:25:24;;;;;;;9.53;6.35;;;;;;;20.80;45.86;100712.85;2341270;75;50747;-77
2020/12/14 10:28:26;;;;;;;7.50;5.65;;;;;;;20.82;45.85;100720.73;2303013;77;51477;-78
2020/12/14 10:31:28;;;;;;;9.50;6.42;;;;;;;20.87;45.75;100720.98;2303227;77;50712;-78
2020/12/14 10:34:31;;;;;;;9.78;5.30;;;;;;;20.85;45.77;100716.30;2303304;77;51478;-78
2020/12/14 10:37:33;;;;;;;8.98;5.70;;;;;;;20.89;45.71;100718.93;2303383;77;51547;-78
2020/12/14 10:40:35;;;;;;;8.13;5.47;;;;;;;20.88;45.71;100720.80;2303013;77;50794;-78
2020/12/14 10:43:37;;;;;;;7.80;6.00;;;;;;;20.90;45.68;100729.17;2303041;77;52292;-78
2020/12/14 10:46:39;;;;;;;8.28;5.42;;;;;;;20.91;45.63;100730.33;2315193;75;50321;-77
2020/12/14 10:49:42;;;;;;;7.70;5.62;;;;;;;20.94;45.55;100717.83;2344688;75;50333;-77
2020/12/14 10:52:44;;;;;;;7.87;5.85;;;;;;;20.93;45.58;100716.14;2345166;75;50692;-77
2020/12/14 10:55:46;;;;;;;8.63;5.80;;;;;;;20.95;45.58;100713.27;2345099;75;50408;-77
2020/12/14 10:58:48;;;;;;;8.05;5.55;;;;;;;20.95;45.53;100705.20;2345061;75;50631;-78
2020/12/14 11:01:51;;;;;;;8.08;5.70;;;;;;;20.97;45.51;100711.22;2345066;75;51539;-78
2020/12/14 11:04:53;;;;;;;8.65;5.60;;;;;;;20.98;45.46;100702.94;2344833;75;50768;-77
2020/12/14 11:07:56;;;;;;;6.85;5.47;;;;;;;21.02;45.41;100703.39;2344912;75;50679;-78
2020/12/14 11:10:58;;;;;;;6.30;5.20;;;;;;;21.02;45.41;100698.01;2344774;75;50142;-77
2020/12/14 11:14:00;;;;;;;8.78;5.60;;;;;;;21.01;45.44;100697.16;2344899;74;50643;-77
2020/12/14 11:17:03;;;;;;;7.47;5.28;;;;;;;21.02;45.40;100700.70;2310194;75;53160;-76
2020/12/14 11:20:08;;;;;;;8.48;5.65;;;;;;;21.05;45.33;100698.95;2344653;74;50385;-76
2020/12/14 11:23:10;;;;;;;8.73;5.70;;;;;;;21.07;45.29;100692.34;2345120;74;22580;-76
2020/12/14 11:26:12;;;;;;;6.55;5.20;;;;;;;21.06;45.33;100691.19;2344975;75;50362;-77
2020/12/14 11:29:15;;;;;;;7.47;5.20;;;;;;;21.07;45.32;100676.20;2344848;75;50179;-76
2020/12/14 11:32:17;;;;;;;7.87;5.60;;;;;;;21.07;45.29;100679.41;2345184;75;50745;-78
2020/12/14 11:35:19;;;;;;;7.50;5.35;;;;;;;21.08;45.25;100677.85;2344913;75;50408;-77
2020/12/14 11:38:21;;;;;;;6.72;4.95;;;;;;;21.05;45.26;100683.64;2345053;75;50322;-77
2020/12/14 11:41:24;;;;;;;7.05;5.10;;;;;;;21.02;45.28;100681.34;2345175;74;50765;-77
2020/12/14 11:44:26;;;;;;;6.92;4.97;;;;;;;20.99;45.31;100674.17;2345026;75;50255;-77
2020/12/14 11:47:28;;;;;;;6.45;5.00;;;;;;;20.98;45.37;100671.17;2344871;75;50715;-76
2020/12/14 11:50:32;;;;;;;7.35;5.10;;;;;;;20.96;45.38;100666.02;2344607;75;51468;-77
2020/12/14 11:53:34;;;;;;;6.83;4.70;;;;;;;20.96;45.39;100662.47;2343431;74;24707;-77
2020/12/14 11:56:36;;;;;;;10.25;4.90;;;;;;;21.02;45.31;100667.90;2344296;75;50307;-78
2020/12/14 11:59:39;;;;;;;9.60;5.10;;;;;;;21.06;45.31;100661.07;2345213;75;50691;-78
2020/12/14 12:02:42;;;;;;;10.63;5.20;;;;;;;21.10;45.28;100666.38;2344983;74;51490;-77
2020/12/14 12:05:44;;;;;;;7.60;5.10;;;;;;;21.14;45.23;100653.87;2344678;74;50436;-77
2020/12/14 12:08:46;;;;;;;9.68;5.42;;;;;;;21.18;45.21;100655.14;2344538;74;50359;-76
2020/12/14 12:11:48;;;;;;;7.28;5.20;;;;;;;21.22;45.10;100646.48;2345106;75;50702;-77
2020/12/14 12:14:50;;;;;;;7.67;5.15;;;;;;;21.25;45.10;100651.97;2344874;74;51553;-78
2020/12/14 12:17:54;;;;;;;8.78;5.05;;;;;;;21.25;45.11;100646.59;2317675;75;51519;-78
2020/12/14 12:20:56;;;;;;;9.43;5.50;;;;;;;21.28;45.44;100647.53;2312598;75;51456;-77
2020/12/14 12:23:58;;;;;;;7.75;4.80;;;;;;;21.33;45.53;100648.28;2344115;74;50356;-77
2020/12/14 12:27:01;;;;;;;7.05;5.08;;;;;;;21.27;45.63;100649.89;2344712;74;50741;-78
2020/12/14 12:30:04;;;;;;;8.33;5.17;;;;;;;21.22;45.72;100635.72;2344911;74;50612;-77
2020/12/14 12:33:06;;;;;;;8.70;4.85;;;;;;;21.18;45.82;100639.00;2343959;74;51549;-77
2020/12/14 12:36:09;;;;;;;8.33;5.30;;;;;;;21.13;45.91;100642.28;2361865;73;52079;-78
2020/12/14 12:39:11;;;;;;;10.50;5.25;;;;;;;21.10;45.98;100644.86;2346257;75;51543;-77
2020/12/14 12:42:15;;;;;;;12.65;5.67;;;;;;;21.12;46.06;100638.44;2344017;75;50452;-77
2020/12/14 12:45:17;;;;;;;8.48;5.58;;;;;;;21.14;45.99;100629.13;2343616;74;50871;-77
2020/12/14 12:48:19;;;;;;;10.40;5.40;;;;;;;21.11;46.05;100628.20;2345044;74;51546;-76
2020/12/14 12:51:21;;;;;;;7.92;5.67;;;;;;;21.14;46.00;100629.66;2345486;74;49940;-77
2020/12/14 12:54:23;;;;;;;16.52;5.58;;;;;;;21.12;46.01;100624.49;2345281;75;50375;-76
2020/12/14 12:57:26;;;;;;;14.18;5.10;;;;;;;21.17;45.95;100623.86;2344588;74;50688;-77
2020/12/14 13:00:28;;;;;;;10.30;5.17;;;;;;;21.18;45.87;100619.64;2344031;75;51494;-77
2020/12/14 13:03:30;;;;;;;10.98;5.42;;;;;;;21.13;45.93;100619.41;2344110;74;51528;-76
2020/12/14 13:06:33;;;;;;;9.10;5.47;;;;;;;21.07;46.00;100626.44;2344826;75;51430;-77
2020/12/14 13:09:35;;;;;;;9.63;5.70;;;;;;;21.03;46.02;100618.44;2345976;74;50763;-78
2020/12/14 13:12:38;;;;;;;8.20;5.08;;;;;;;21.02;46.09;100620.00;2346253;75;50695;-78
2020/12/14 13:15:41;;;;;;;9.18;5.60;;;;;;;20.99;46.18;100621.22;2346400;75;51535;-77
2020/12/14 13:18:44;;;;;;;8.08;5.45;;;;;;;21.02;46.09;100612.75;2344780;74;51550;-77
2020/12/14 13:21:46;;;;;;;6.50;4.97;;;;;;;21.05;46.07;100614.20;2344629;74;50819;-77
2020/12/14 13:24:48;;;;;;;9.70;5.10;;;;;;;21.03;46.06;100613.05;2344722;75;51428;-76
2020/12/14 13:27:50;;;;;;;9.40;5.70;;;;;;;21.09;45.95;100614.11;2344531;75;51390;-78
2020/12/14 13:30:54;;;;;;;7.58;5.30;;;;;;;21.05;46.03;100620.41;2344383;75;52506;-78
2020/12/14 13:33:56;;;;;;;9.70;5.47;;;;;;;21.05;46.04;100633.04;2304877;77;51654;-78
2020/12/14 13:36:58;;;;;;;8.20;5.03;;;;;;;21.07;46.06;100626.95;2304982;77;51412;-77
2020/12/14 13:40:02;;;;;;;6.85;4.35;;;;;;;21.08;46.01;100633.46;2310257;75;50402;-78
2020/12/14 13:43:04;;;;;;;8.23;5.25;;;;;;;21.15;45.83;100622.73;2343882;76;50695;-78
2020/12/14 13:46:06;;;;;;;7.62;4.95;;;;;;;21.15;45.86;100620.05;2343682;75;50370;-77
2020/12/14 13:49:10;;;;;;;6.28;5.28;;;;;;;21.12;46.01;100624.49;2344592;75;51395;-77
2020/12/14 13:52:12;;;;;;;6.80;4.87;;;;;;;21.15;45.92;100620.05;2344354;74;50653;-78
2020/12/14 13:55:14;;;;;;;5.33;4.47;;;;;;;21.17;45.83;100613.95;2345135;74;51480;-77
2020/12/14 13:58:16;;;;;;;8.10;5.17;;;;;;;21.08;45.99;100611.94;2345296;75;50713;-77